DAL8021 PAFA-PABR
Flight info
| Callsign | DAL8021 |
|---|---|
| Flight time | 0h 55m |
| Altitude | 38000 |
| Route | DRRLL4 DRRLL SICTO |
| Aircraft | A346/H-SDE2E3FGHIJ3J4J5M1RWXY/LB1D1 |
Departure
| Time | 2026-04-22 08:10 |
|---|---|
| Airport | Fairbanks International Airport (PAFA) |
Arrival
| Time | 2026-04-22 09:06 |
|---|---|
| Airport | Wiley Post Will Rogers Memorial Airport (PABR) |
| Time | Latitude | Longitude | Altitude | Speed | Heading |
|---|---|---|---|---|---|
| 2026-04-22 07:44 | 64.81691 | -147.86683 | 444 ft | 0 kts | 347° |
| 2026-04-22 07:50 | 64.81679 | -147.86676 | 428 ft | 4 kts | 345° |
| 2026-04-22 07:50 | 64.81655 | -147.86655 | 428 ft | 4 kts | 328° |
| 2026-04-22 07:50 | 64.81638 | -147.86618 | 427 ft | 4 kts | 304° |
| 2026-04-22 07:50 | 64.81627 | -147.86565 | 431 ft | 4 kts | 285° |
| 2026-04-22 07:51 | 64.81621 | -147.86506 | 428 ft | 2 kts | 285° |
| 2026-04-22 07:51 | 64.81620 | -147.86492 | 428 ft | 0 kts | 285° |
| 2026-04-22 07:59 | 64.81620 | -147.86493 | 444 ft | 0 kts | 285° |
| 2026-04-22 07:59 | 64.81623 | -147.86511 | 444 ft | 0 kts | 294° |
| 2026-04-22 07:59 | 64.81624 | -147.86515 | 428 ft | 1 kts | 310° |
| 2026-04-22 08:00 | 64.81633 | -147.86522 | 431 ft | 2 kts | 1° |
| 2026-04-22 08:00 | 64.81669 | -147.86486 | 432 ft | 9 kts | 30° |
| 2026-04-22 08:00 | 64.81742 | -147.86369 | 438 ft | 16 kts | 37° |
| 2026-04-22 08:00 | 64.81852 | -147.86174 | 428 ft | 23 kts | 37° |
| 2026-04-22 08:01 | 64.81999 | -147.85914 | 434 ft | 29 kts | 39° |
| 2026-04-22 08:01 | 64.82135 | -147.85541 | 428 ft | 31 kts | 46° |
| 2026-04-22 08:01 | 64.82291 | -147.85176 | 428 ft | 33 kts | 38° |
| 2026-04-22 08:01 | 64.82469 | -147.84923 | 431 ft | 26 kts | 45° |
| 2026-04-22 08:02 | 64.82608 | -147.84625 | 432 ft | 27 kts | 40° |
| 2026-04-22 08:02 | 64.82753 | -147.84342 | 432 ft | 26 kts | 39° |
| 2026-04-22 08:02 | 64.82810 | -147.84224 | 431 ft | 0 kts | 47° |
| 2026-04-22 08:05 | 64.82811 | -147.84221 | 432 ft | 1 kts | 47° |
| 2026-04-22 08:05 | 64.82824 | -147.84187 | 436 ft | 5 kts | 47° |
| 2026-04-22 08:05 | 64.82851 | -147.84120 | 431 ft | 8 kts | 47° |
| 2026-04-22 08:05 | 64.82891 | -147.84018 | 432 ft | 11 kts | 47° |
| 2026-04-22 08:06 | 64.82952 | -147.83864 | 431 ft | 14 kts | 47° |
| 2026-04-22 08:06 | 64.83027 | -147.83676 | 433 ft | 17 kts | 47° |
| 2026-04-22 08:06 | 64.83117 | -147.83447 | 430 ft | 21 kts | 47° |
| 2026-04-22 08:06 | 64.83221 | -147.83184 | 432 ft | 17 kts | 47° |
| 2026-04-22 08:07 | 64.83275 | -147.83048 | 434 ft | 0 kts | 47° |
| 2026-04-22 08:07 | 64.83276 | -147.83045 | 434 ft | 1 kts | 49° |
| 2026-04-22 08:07 | 64.83280 | -147.83026 | 436 ft | 2 kts | 73° |
| 2026-04-22 08:07 | 64.83218 | -147.82923 | 435 ft | 18 kts | 199° |
| 2026-04-22 08:08 | 64.83111 | -147.83148 | 432 ft | 22 kts | 227° |
| 2026-04-22 08:08 | 64.83016 | -147.83456 | 433 ft | 24 kts | 234° |
| 2026-04-22 08:08 | 64.82886 | -147.83706 | 432 ft | 25 kts | 200° |
| 2026-04-22 08:08 | 64.82800 | -147.84045 | 437 ft | 28 kts | 223° |
| 2026-04-22 08:09 | 64.82654 | -147.84269 | 434 ft | 19 kts | 232° |
| 2026-04-22 08:09 | 64.82474 | -147.84531 | 447 ft | 61 kts | 214° |
| 2026-04-22 08:09 | 64.81945 | -147.85495 | 446 ft | 127 kts | 217° |
| 2026-04-22 08:09 | 64.81104 | -147.87036 | 468 ft | 175 kts | 218° |
| 2026-04-22 08:10 | 64.80098 | -147.88884 | 938 ft | 189 kts | 218° |
| 2026-04-22 08:10 | 64.79059 | -147.90781 | 1733 ft | 185 kts | 218° |
| 2026-04-22 08:10 | 64.78210 | -147.92832 | 2756 ft | 168 kts | 243° |
| 2026-04-22 08:10 | 64.77994 | -147.95575 | 3022 ft | 186 kts | 282° |
| 2026-04-22 08:11 | 64.78672 | -147.98056 | 3985 ft | 183 kts | 321° |
| 2026-04-22 08:11 | 64.79875 | -147.98830 | 5108 ft | 184 kts | 1° |
| 2026-04-22 08:11 | 64.81041 | -147.97618 | 5976 ft | 194 kts | 34° |
| 2026-04-22 08:11 | 64.82135 | -147.95577 | 6612 ft | 206 kts | 25° |
| 2026-04-22 08:12 | 64.83451 | -147.94107 | 7188 ft | 214 kts | 7° |
| 2026-04-22 08:12 | 64.84942 | -147.93473 | 7805 ft | 221 kts | 355° |
| 2026-04-22 08:12 | 64.86492 | -147.93410 | 8636 ft | 223 kts | 349° |
| 2026-04-22 08:12 | 64.88044 | -147.93626 | 9556 ft | 224 kts | 346° |
| 2026-04-22 08:13 | 64.89603 | -147.93968 | 10435 ft | 226 kts | 345° |
| 2026-04-22 08:13 | 64.91179 | -147.94364 | 11251 ft | 229 kts | 344° |
| 2026-04-22 08:13 | 64.92750 | -147.94776 | 12038 ft | 232 kts | 344° |
| 2026-04-22 08:13 | 64.94404 | -147.95216 | 12907 ft | 235 kts | 343° |
| 2026-04-22 08:14 | 64.96042 | -147.95653 | 13788 ft | 237 kts | 341° |
| 2026-04-22 08:14 | 64.97656 | -147.96493 | 14526 ft | 234 kts | 333° |
| 2026-04-22 08:14 | 64.99199 | -147.97733 | 15318 ft | 234 kts | 330° |
| 2026-04-22 08:14 | 65.00733 | -147.99031 | 16154 ft | 234 kts | 330° |
| 2026-04-22 08:15 | 65.02269 | -148.00339 | 16915 ft | 235 kts | 329° |
| 2026-04-22 08:15 | 65.03794 | -148.01642 | 17573 ft | 236 kts | 329° |
| 2026-04-22 08:15 | 65.05307 | -148.02922 | 17816 ft | 231 kts | 328° |
| 2026-04-22 08:15 | 65.06853 | -148.04260 | 18087 ft | 242 kts | 329° |
| 2026-04-22 08:16 | 65.08451 | -148.05628 | 18835 ft | 243 kts | 329° |
| 2026-04-22 08:16 | 65.10043 | -148.06974 | 19614 ft | 242 kts | 328° |
| 2026-04-22 08:16 | 65.11628 | -148.08317 | 20331 ft | 242 kts | 327° |
| 2026-04-22 08:16 | 65.13211 | -148.09667 | 21084 ft | 242 kts | 327° |
| 2026-04-22 08:17 | 65.14795 | -148.11022 | 21837 ft | 242 kts | 326° |
| 2026-04-22 08:17 | 65.16361 | -148.12365 | 22580 ft | 242 kts | 326° |
| 2026-04-22 08:17 | 65.17949 | -148.13730 | 23281 ft | 243 kts | 325° |
| 2026-04-22 08:17 | 65.19549 | -148.15078 | 23933 ft | 244 kts | 326° |
| 2026-04-22 08:18 | 65.21168 | -148.16408 | 24512 ft | 247 kts | 326° |
| 2026-04-22 08:18 | 65.22806 | -148.17755 | 25032 ft | 250 kts | 326° |
| 2026-04-22 08:18 | 65.24465 | -148.19120 | 25657 ft | 253 kts | 326° |
| 2026-04-22 08:18 | 65.26145 | -148.20503 | 26196 ft | 257 kts | 326° |
| 2026-04-22 08:19 | 65.27845 | -148.21903 | 26688 ft | 260 kts | 327° |
| 2026-04-22 08:19 | 65.29566 | -148.23322 | 27209 ft | 263 kts | 327° |
| 2026-04-22 08:19 | 65.31287 | -148.24741 | 27708 ft | 266 kts | 327° |
| 2026-04-22 08:19 | 65.33054 | -148.26199 | 28205 ft | 269 kts | 327° |
| 2026-04-22 08:20 | 65.34833 | -148.27669 | 28717 ft | 273 kts | 327° |
| 2026-04-22 08:20 | 65.36611 | -148.29284 | 29202 ft | 273 kts | 324° |
| 2026-04-22 08:20 | 65.38349 | -148.31146 | 29691 ft | 274 kts | 322° |
| 2026-04-22 08:20 | 65.40082 | -148.33152 | 30172 ft | 276 kts | 322° |
| 2026-04-22 08:21 | 65.41840 | -148.35205 | 30580 ft | 279 kts | 322° |
| 2026-04-22 08:21 | 65.43599 | -148.37277 | 30903 ft | 285 kts | 323° |
| 2026-04-22 08:21 | 65.45385 | -148.39380 | 31155 ft | 292 kts | 323° |
| 2026-04-22 08:21 | 65.47231 | -148.41547 | 31476 ft | 297 kts | 323° |
| 2026-04-22 08:22 | 65.49118 | -148.43766 | 31806 ft | 302 kts | 324° |
| 2026-04-22 08:22 | 65.51027 | -148.46014 | 32119 ft | 307 kts | 324° |
| 2026-04-22 08:22 | 65.52979 | -148.48314 | 32429 ft | 312 kts | 324° |
| 2026-04-22 08:22 | 65.54951 | -148.50644 | 32733 ft | 317 kts | 325° |
| 2026-04-22 08:23 | 65.56955 | -148.53016 | 33058 ft | 322 kts | 325° |
| 2026-04-22 08:23 | 65.58968 | -148.55406 | 33260 ft | 330 kts | 326° |
| 2026-04-22 08:23 | 65.61061 | -148.57895 | 33429 ft | 339 kts | 326° |
| 2026-04-22 08:23 | 65.63209 | -148.60454 | 33673 ft | 348 kts | 326° |
| 2026-04-22 08:24 | 65.65421 | -148.63102 | 33756 ft | 360 kts | 327° |
| 2026-04-22 08:24 | 65.67713 | -148.65831 | 33761 ft | 373 kts | 328° |
| 2026-04-22 08:24 | 65.70088 | -148.68661 | 33767 ft | 386 kts | 328° |
| 2026-04-22 08:24 | 65.72513 | -148.71559 | 33774 ft | 399 kts | 328° |
| 2026-04-22 08:25 | 65.75047 | -148.74597 | 33780 ft | 412 kts | 328° |
| 2026-04-22 08:25 | 65.77664 | -148.77743 | 33792 ft | 423 kts | 328° |
| 2026-04-22 08:25 | 65.82999 | -148.84168 | 33793 ft | 429 kts | 328° |
| 2026-04-22 08:26 | 65.88374 | -148.90676 | 33797 ft | 433 kts | 328° |
| 2026-04-22 08:26 | 65.91104 | -148.94009 | 33804 ft | 444 kts | 328° |
| 2026-04-22 08:26 | 65.93906 | -148.97439 | 33869 ft | 454 kts | 328° |
| 2026-04-22 08:27 | 65.96749 | -149.00923 | 34157 ft | 458 kts | 328° |
| 2026-04-22 08:27 | 65.99611 | -149.04436 | 34411 ft | 461 kts | 328° |
| 2026-04-22 08:27 | 66.02487 | -149.07975 | 34634 ft | 464 kts | 328° |
| 2026-04-22 08:27 | 66.05360 | -149.11520 | 34847 ft | 468 kts | 329° |
| 2026-04-22 08:28 | 66.08284 | -149.15138 | 35067 ft | 470 kts | 329° |
| 2026-04-22 08:28 | 66.11210 | -149.18769 | 35314 ft | 472 kts | 329° |
| 2026-04-22 08:28 | 66.14154 | -149.22433 | 35617 ft | 473 kts | 329° |
| 2026-04-22 08:28 | 66.17087 | -149.26096 | 36048 ft | 470 kts | 329° |
| 2026-04-22 08:29 | 66.19996 | -149.29729 | 36481 ft | 467 kts | 329° |
| 2026-04-22 08:29 | 66.22911 | -149.33377 | 36709 ft | 470 kts | 329° |
| 2026-04-22 08:29 | 66.25831 | -149.37045 | 36861 ft | 472 kts | 329° |
| 2026-04-22 08:29 | 66.28773 | -149.40751 | 37020 ft | 475 kts | 329° |
| 2026-04-22 08:30 | 66.31726 | -149.44482 | 37178 ft | 477 kts | 329° |
| 2026-04-22 08:30 | 66.34656 | -149.48194 | 37322 ft | 478 kts | 329° |
| 2026-04-22 08:30 | 66.37626 | -149.51968 | 37460 ft | 480 kts | 329° |
| 2026-04-22 08:30 | 66.40605 | -149.55763 | 37600 ft | 481 kts | 329° |
| 2026-04-22 08:31 | 66.43599 | -149.59590 | 37745 ft | 482 kts | 329° |
| 2026-04-22 08:31 | 66.46594 | -149.63426 | 37989 ft | 480 kts | 329° |
| 2026-04-22 08:31 | 66.52375 | -149.70856 | 38164 ft | 456 kts | 329° |
| 2026-04-22 08:32 | 66.55158 | -149.74444 | 38179 ft | 441 kts | 329° |
| 2026-04-22 08:32 | 66.57837 | -149.77909 | 38179 ft | 427 kts | 329° |
| 2026-04-22 08:32 | 66.60496 | -149.81368 | 38191 ft | 431 kts | 329° |
| 2026-04-22 08:33 | 66.65873 | -149.88401 | 38229 ft | 444 kts | 329° |
| 2026-04-22 08:33 | 66.71446 | -149.95711 | 38216 ft | 456 kts | 329° |
| 2026-04-22 08:34 | 66.77121 | -150.03177 | 38209 ft | 459 kts | 329° |
| 2026-04-22 08:34 | 66.82795 | -150.10677 | 38215 ft | 459 kts | 329° |
| 2026-04-22 08:35 | 66.88509 | -150.18213 | 38210 ft | 459 kts | 329° |
| 2026-04-22 08:35 | 66.91282 | -150.21895 | 38195 ft | 447 kts | 329° |
| 2026-04-22 08:35 | 66.94002 | -150.25524 | 38188 ft | 437 kts | 328° |
| 2026-04-22 08:36 | 66.99445 | -150.32867 | 38172 ft | 448 kts | 328° |
| 2026-04-22 08:36 | 67.15893 | -150.55235 | 38134 ft | 475 kts | 329° |
| 2026-04-22 08:36 | 67.33444 | -150.79450 | 38167 ft | 477 kts | 329° |
| 2026-04-22 08:37 | 67.69605 | -151.30668 | 38289 ft | 478 kts | 328° |
| 2026-04-22 08:37 | 68.07156 | -151.85805 | 38094 ft | 481 kts | 328° |
| 2026-04-22 08:37 | 68.19256 | -152.04016 | 38360 ft | 481 kts | 328° |
| 2026-04-22 08:38 | 68.38031 | -152.32717 | 38380 ft | 484 kts | 328° |
| 2026-04-22 08:38 | 68.75469 | -152.91633 | 38412 ft | 485 kts | 327° |
| 2026-04-22 08:39 | 69.12512 | -153.52205 | 38384 ft | 485 kts | 327° |
| 2026-04-22 08:39 | 69.29045 | -153.80068 | 38388 ft | 486 kts | 327° |
| 2026-04-22 08:40 | 69.36984 | -153.93604 | 38389 ft | 486 kts | 327° |
| 2026-04-22 08:40 | 69.42767 | -154.03535 | 38290 ft | 481 kts | 327° |
| 2026-04-22 08:40 | 69.45600 | -154.08421 | 37678 ft | 477 kts | 327° |
| 2026-04-22 08:41 | 69.48422 | -154.13309 | 36772 ft | 472 kts | 327° |
| 2026-04-22 08:41 | 69.51222 | -154.18179 | 36014 ft | 463 kts | 327° |
| 2026-04-22 08:41 | 69.53947 | -154.22933 | 35309 ft | 455 kts | 327° |
| 2026-04-22 08:41 | 69.56639 | -154.27645 | 34556 ft | 448 kts | 327° |
| 2026-04-22 08:42 | 69.59299 | -154.32315 | 33813 ft | 443 kts | 327° |
| 2026-04-22 08:42 | 69.61924 | -154.36938 | 33186 ft | 441 kts | 327° |
| 2026-04-22 08:42 | 69.64520 | -154.41521 | 32832 ft | 435 kts | 327° |
| 2026-04-22 08:42 | 69.67092 | -154.46078 | 32387 ft | 432 kts | 327° |
| 2026-04-22 08:43 | 69.69610 | -154.50550 | 31937 ft | 429 kts | 327° |
| 2026-04-22 08:43 | 69.72148 | -154.55068 | 31513 ft | 425 kts | 327° |
| 2026-04-22 08:43 | 69.74652 | -154.59536 | 30860 ft | 420 kts | 327° |
| 2026-04-22 08:43 | 69.77129 | -154.63978 | 30000 ft | 415 kts | 328° |
| 2026-04-22 08:44 | 69.79564 | -154.68355 | 29139 ft | 408 kts | 328° |
| 2026-04-22 08:44 | 69.81952 | -154.72653 | 28555 ft | 402 kts | 328° |
| 2026-04-22 08:44 | 69.84337 | -154.76956 | 28129 ft | 403 kts | 328° |
| 2026-04-22 08:44 | 69.86692 | -154.81208 | 27571 ft | 401 kts | 328° |
| 2026-04-22 08:45 | 69.89048 | -154.85472 | 27279 ft | 396 kts | 328° |
| 2026-04-22 08:45 | 69.91382 | -154.89710 | 26754 ft | 393 kts | 328° |
| 2026-04-22 08:45 | 69.93695 | -154.93927 | 26260 ft | 389 kts | 329° |
| 2026-04-22 08:45 | 69.95954 | -154.98056 | 25822 ft | 386 kts | 329° |
| 2026-04-22 08:46 | 69.98229 | -155.02225 | 25339 ft | 384 kts | 329° |
| 2026-04-22 08:46 | 70.00473 | -155.06351 | 24877 ft | 381 kts | 329° |
| 2026-04-22 08:46 | 70.02721 | -155.10508 | 24467 ft | 379 kts | 329° |
| 2026-04-22 08:46 | 70.04944 | -155.14629 | 24328 ft | 378 kts | 329° |
| 2026-04-22 08:47 | 70.07152 | -155.18728 | 24080 ft | 372 kts | 329° |
| 2026-04-22 08:47 | 70.09304 | -155.22740 | 23458 ft | 362 kts | 329° |
| 2026-04-22 08:47 | 70.11402 | -155.26658 | 22907 ft | 351 kts | 329° |
| 2026-04-22 08:47 | 70.13438 | -155.30465 | 22541 ft | 344 kts | 329° |
| 2026-04-22 08:48 | 70.15454 | -155.34239 | 22130 ft | 342 kts | 329° |
| 2026-04-22 08:48 | 70.17426 | -155.37938 | 21774 ft | 338 kts | 330° |
| 2026-04-22 08:48 | 70.19452 | -155.41741 | 21408 ft | 335 kts | 330° |
| 2026-04-22 08:48 | 70.21409 | -155.45416 | 21059 ft | 331 kts | 330° |
| 2026-04-22 08:49 | 70.23353 | -155.49077 | 20729 ft | 328 kts | 330° |
| 2026-04-22 08:49 | 70.25275 | -155.52710 | 20393 ft | 324 kts | 330° |
| 2026-04-22 08:49 | 70.27223 | -155.56401 | 20056 ft | 321 kts | 330° |
| 2026-04-22 08:49 | 70.30958 | -155.63505 | 19389 ft | 316 kts | 330° |
| 2026-04-22 08:50 | 70.34659 | -155.70583 | 18723 ft | 311 kts | 330° |
| 2026-04-22 08:50 | 70.38338 | -155.77653 | 18005 ft | 304 kts | 330° |
| 2026-04-22 08:50 | 70.41908 | -155.84532 | 17380 ft | 297 kts | 330° |
| 2026-04-22 08:50 | 70.45411 | -155.91309 | 16761 ft | 289 kts | 330° |
| 2026-04-22 08:51 | 70.48724 | -155.97750 | 16195 ft | 282 kts | 330° |
| 2026-04-22 08:51 | 70.52023 | -156.04180 | 15421 ft | 283 kts | 330° |
| 2026-04-22 08:51 | 70.55365 | -156.10728 | 14797 ft | 278 kts | 329° |
| 2026-04-22 08:51 | 70.58586 | -156.17063 | 14196 ft | 274 kts | 329° |
| 2026-04-22 08:52 | 70.61806 | -156.23426 | 13582 ft | 267 kts | 329° |
| 2026-04-22 08:52 | 70.64943 | -156.29647 | 13017 ft | 260 kts | 329° |
| 2026-04-22 08:52 | 70.67890 | -156.35514 | 12478 ft | 252 kts | 329° |
| 2026-04-22 08:52 | 70.70784 | -156.41294 | 11924 ft | 246 kts | 329° |
| 2026-04-22 08:53 | 70.73631 | -156.46996 | 11410 ft | 243 kts | 329° |
| 2026-04-22 08:53 | 70.76510 | -156.52784 | 10865 ft | 241 kts | 329° |
| 2026-04-22 08:53 | 70.79303 | -156.58421 | 10686 ft | 240 kts | 329° |
| 2026-04-22 08:53 | 70.82117 | -156.64115 | 10551 ft | 240 kts | 329° |
| 2026-04-22 08:54 | 70.83503 | -156.66928 | 10478 ft | 239 kts | 329° |
| 2026-04-22 08:54 | 70.86063 | -156.72133 | 10196 ft | 240 kts | 329° |
| 2026-04-22 08:54 | 70.88816 | -156.77740 | 9618 ft | 235 kts | 329° |
| 2026-04-22 08:54 | 70.91453 | -156.83133 | 9134 ft | 233 kts | 329° |
| 2026-04-22 08:55 | 70.94251 | -156.88878 | 8626 ft | 231 kts | 329° |
| 2026-04-22 08:55 | 70.96906 | -156.94348 | 8133 ft | 229 kts | 328° |
| 2026-04-22 08:55 | 70.99537 | -156.99790 | 7635 ft | 227 kts | 328° |
| 2026-04-22 08:55 | 71.02158 | -157.05222 | 7162 ft | 224 kts | 329° |
| 2026-04-22 08:56 | 71.04766 | -157.10622 | 6690 ft | 222 kts | 329° |
| 2026-04-22 08:56 | 71.07068 | -157.15421 | 6232 ft | 220 kts | 329° |
| 2026-04-22 08:56 | 71.08332 | -157.18067 | 6003 ft | 219 kts | 328° |
| 2026-04-22 08:56 | 71.09588 | -157.20700 | 5768 ft | 216 kts | 328° |
| 2026-04-22 08:57 | 71.10833 | -157.23316 | 5534 ft | 213 kts | 328° |
| 2026-04-22 08:57 | 71.12052 | -157.25888 | 5285 ft | 211 kts | 328° |
| 2026-04-22 08:57 | 71.13274 | -157.28473 | 5063 ft | 209 kts | 328° |
| 2026-04-22 08:57 | 71.14468 | -157.30996 | 4830 ft | 206 kts | 328° |
| 2026-04-22 08:58 | 71.15647 | -157.33483 | 4592 ft | 203 kts | 330° |
| 2026-04-22 08:58 | 71.16893 | -157.35303 | 4370 ft | 199 kts | 346° |
| 2026-04-22 08:58 | 71.18233 | -157.35953 | 4180 ft | 191 kts | 358° |
| 2026-04-22 08:58 | 71.19544 | -157.36044 | 3931 ft | 183 kts | 0° |
| 2026-04-22 08:59 | 71.20784 | -157.36056 | 3702 ft | 173 kts | 1° |
| 2026-04-22 08:59 | 71.21950 | -157.36067 | 3501 ft | 162 kts | 1° |
| 2026-04-22 08:59 | 71.23038 | -157.36088 | 3319 ft | 150 kts | 0° |
| 2026-04-22 08:59 | 71.24051 | -157.36112 | 3158 ft | 143 kts | 0° |
| 2026-04-22 09:00 | 71.25044 | -157.36139 | 3020 ft | 142 kts | 0° |
| 2026-04-22 09:00 | 71.26035 | -157.36167 | 2955 ft | 142 kts | 1° |
| 2026-04-22 09:00 | 71.26996 | -157.35594 | 2953 ft | 141 kts | 25° |
| 2026-04-22 09:00 | 71.27783 | -157.33845 | 2939 ft | 142 kts | 48° |
| 2026-04-22 09:01 | 71.28285 | -157.31202 | 2888 ft | 142 kts | 71° |
| 2026-04-22 09:01 | 71.28426 | -157.28149 | 2883 ft | 143 kts | 85° |
| 2026-04-22 09:01 | 71.28441 | -157.25033 | 2829 ft | 143 kts | 87° |
| 2026-04-22 09:01 | 71.28443 | -157.21925 | 2716 ft | 143 kts | 88° |
| 2026-04-22 09:02 | 71.28444 | -157.18821 | 2608 ft | 143 kts | 87° |
| 2026-04-22 09:02 | 71.28448 | -157.15723 | 2416 ft | 143 kts | 87° |
| 2026-04-22 09:02 | 71.28454 | -157.12634 | 2199 ft | 142 kts | 87° |
| 2026-04-22 09:02 | 71.28461 | -157.09560 | 2010 ft | 141 kts | 87° |
| 2026-04-22 09:03 | 71.28468 | -157.06475 | 1811 ft | 141 kts | 87° |
| 2026-04-22 09:03 | 71.28474 | -157.03409 | 1630 ft | 141 kts | 87° |
| 2026-04-22 09:03 | 71.28479 | -157.00387 | 1434 ft | 140 kts | 87° |
| 2026-04-22 09:03 | 71.28475 | -156.97349 | 1243 ft | 140 kts | 88° |
| 2026-04-22 09:04 | 71.28466 | -156.94319 | 1028 ft | 139 kts | 87° |
| 2026-04-22 09:04 | 71.28474 | -156.91308 | 907 ft | 138 kts | 88° |
| 2026-04-22 09:04 | 71.28479 | -156.88535 | 788 ft | 138 kts | 86° |
| 2026-04-22 09:04 | 71.28506 | -156.85552 | 577 ft | 137 kts | 85° |
| 2026-04-22 09:05 | 71.28533 | -156.82589 | 314 ft | 136 kts | 86° |
| 2026-04-22 09:05 | 71.28543 | -156.79639 | 103 ft | 135 kts | 86° |
| 2026-04-22 09:05 | 71.28553 | -156.76749 | 60 ft | 124 kts | 90° |
| 2026-04-22 09:05 | 71.28554 | -156.74864 | 53 ft | 50 kts | 90° |
| 2026-04-22 09:06 | 71.28549 | -156.74290 | 53 ft | 21 kts | 93° |
| 2026-04-22 09:06 | 71.28538 | -156.73919 | 52 ft | 12 kts | 83° |
| 2026-04-22 09:06 | 71.28582 | -156.73908 | 50 ft | 5 kts | 314° |
| 2026-04-22 09:06 | 71.28583 | -156.73947 | 52 ft | 0 kts | 252° |
| 2026-04-22 09:07 | 71.28562 | -156.74141 | 52 ft | 21 kts | 255° |
| 2026-04-22 09:07 | 71.28541 | -156.74864 | 45 ft | 41 kts | 268° |
| 2026-04-22 09:07 | 71.28575 | -156.75560 | 55 ft | 23 kts | 321° |
| 2026-04-22 09:07 | 71.28720 | -156.75645 | 51 ft | 15 kts | 336° |
| 2026-04-22 09:08 | 71.28727 | -156.76008 | 55 ft | 20 kts | 265° |
| 2026-04-22 09:08 | 71.28702 | -156.76459 | 54 ft | 22 kts | 260° |
| 2026-04-22 09:08 | 71.28689 | -156.76832 | 55 ft | 0 kts | 266° |
| 2026-04-22 09:12 | 71.28686 | -156.77118 | 63 ft | 15 kts | 273° |
| 2026-04-22 09:12 | 71.28695 | -156.77419 | 64 ft | 13 kts | 272° |
| 2026-04-22 09:12 | 71.28694 | -156.77673 | 65 ft | 8 kts | 268° |
| 2026-04-22 09:13 | 71.28707 | -156.77755 | 56 ft | 8 kts | 346° |
| 2026-04-22 09:13 | 71.28728 | -156.77753 | 63 ft | 0 kts | 12° |